Map

Track Data

SID SEASON NUMBER BASIN SUBBASIN NAME ISO_TIME NATURE LAT LON WMO_WIND WMO_PRES WMO_AGENCY TRACK_TYPE DIST2LAND LANDFALL IFLAG USA_AGENCY USA_ATCF_ID USA_LAT USA_LON USA_RECORD USA_STATUS USA_WIND USA_PRES USA_SSHS USA_R34_NE USA_R34_SE USA_R34_SW USA_R34_NW USA_R50_NE USA_R50_SE USA_R50_SW USA_R50_NW USA_R64_NE USA_R64_SE USA_R64_SW USA_R64_NW USA_POCI USA_ROCI USA_RMW USA_EYE TOKYO_LAT TOKYO_LON TOKYO_GRADE TOKYO_WIND TOKYO_PRES TOKYO_R50_DIR TOKYO_R50_LONG TOKYO_R50_SHORT TOKYO_R30_DIR TOKYO_R30_LONG TOKYO_R30_SHORT TOKYO_LAND CMA_LAT CMA_LON CMA_CAT CMA_WIND CMA_PRES HKO_LAT HKO_LON HKO_CAT HKO_WIND HKO_PRES NEWDELHI_LAT NEWDELHI_LON NEWDELHI_GRADE NEWDELHI_WIND NEWDELHI_PRES NEWDELHI_CI NEWDELHI_DP NEWDELHI_POCI REUNION_LAT REUNION_LON REUNION_TYPE REUNION_WIND REUNION_PRES REUNION_TNUM REUNION_CI REUNION_RMW REUNION_R34_NE REUNION_R34_SE REUNION_R34_SW REUNION_R34_NW REUNION_R50_NE REUNION_R50_SE REUNION_R50_SW REUNION_R50_NW REUNION_R64_NE REUNION_R64_SE REUNION_R64_SW REUNION_R64_NW BOM_LAT BOM_LON BOM_TYPE BOM_WIND BOM_PRES BOM_TNUM BOM_CI BOM_RMW BOM_R34_NE BOM_R34_SE BOM_R34_SW BOM_R34_NW BOM_R50_NE BOM_R50_SE BOM_R50_SW BOM_R50_NW BOM_R64_NE BOM_R64_SE BOM_R64_SW BOM_R64_NW BOM_ROCI BOM_POCI BOM_EYE BOM_POS_METHOD BOM_PRES_METHOD NADI_LAT NADI_LON NADI_CAT NADI_WIND NADI_PRES WELLINGTON_LAT WELLINGTON_LON WELLINGTON_WIND WELLINGTON_PRES DS824_LAT DS824_LON DS824_STAGE DS824_WIND DS824_PRES TD9636_LAT TD9636_LON TD9636_STAGE TD9636_WIND TD9636_PRES TD9635_LAT TD9635_LON TD9635_WIND TD9635_PRES TD9635_ROCI NEUMANN_LAT NEUMANN_LON NEUMANN_CLASS NEUMANN_WIND NEUMANN_PRES MLC_LAT MLC_LON MLC_CLASS MLC_WIND MLC_PRES USA_GUST BOM_GUST BOM_GUST_PER REUNION_GUST REUNION_GUST_PER USA_SEAHGT USA_SEARAD_NE USA_SEARAD_SE USA_SEARAD_SW USA_SEARAD_NW STORM_SPEED STORM_DIR
1994232N10144 1994 71 WP MM HARRY 1994-08-20 00:00:00 NR 10.0000 143.500 main 1398 1398 O_____________ jtwc_wp WP211994 10.0000 143.500 10 -1 11 297
1994232N10144 1994 71 WP MM HARRY 1994-08-20 03:00:00 NR 10.2502 143.000 main 1435 1427 P_____________ WP211994 10.2502 143.000 10 -1 11 297
1994232N10144 1994 71 WP MM HARRY 1994-08-20 06:00:00 NR 10.5000 142.500 main 1437 1433 O_____________ jtwc_wp WP211994 10.5000 142.500 10 -1 11 297
1994232N10144 1994 71 WP MM HARRY 1994-08-20 09:00:00 NR 10.7499 142.000 main 1441 1441 P_____________ WP211994 10.7499 142.000 10 -1 11 297
1994232N10144 1994 71 WP MM HARRY 1994-08-20 12:00:00 NR 11.0000 141.500 main 1458 1455 O_____________ jtwc_wp WP211994 11.0000 141.500 10 -1 11 297
1994232N10144 1994 71 WP MM HARRY 1994-08-20 15:00:00 NR 11.2499 141.000 main 1458 1458 P_____________ WP211994 11.2499 141.000 10 -1 11 297
1994232N10144 1994 71 WP MM HARRY 1994-08-20 18:00:00 NR 11.5000 140.500 main 1469 1465 O_____________ jtwc_wp WP211994 11.5000 140.500 10 -1 11 297
1994232N10144 1994 71 WP MM HARRY 1994-08-20 21:00:00 NR 11.7499 140.000 main 1472 1472 P_____________ WP211994 11.7499 140.000 10 -1 11 297
1994232N10144 1994 71 WP MM HARRY 1994-08-21 00:00:00 NR 12.0000 139.500 main 1486 1439 O_____________ jtwc_wp WP211994 12.0000 139.500 10 -1 11 298
1994232N10144 1994 71 WP MM HARRY 1994-08-21 03:00:00 NR 12.2574 139.007 main 1441 1393 P_____________ WP211994 12.2574 139.007 10 -1 11 297
1994232N10144 1994 71 WP MM HARRY 1994-08-21 06:00:00 NR 12.5000 138.500 main 1393 1341 O_____________ jtwc_wp WP211994 12.5000 138.500 10 -1 11 294
1994232N10144 1994 71 WP MM HARRY 1994-08-21 09:00:00 NR 12.7074 137.957 main 1341 1280 P_____________ WP211994 12.7074 137.957 10 -1 11 290
1994232N10144 1994 71 WP MM HARRY 1994-08-21 12:00:00 NR 12.9000 137.400 main 1280 1230 O_____________ jtwc_wp WP211994 12.9000 137.400 10 -1 12 290
1994232N10144 1994 71 WP MM HARRY 1994-08-21 15:00:00 NR 13.0999 136.850 main 1219 1170 P_____________ WP211994 13.0999 136.850 10 -1 11 290
1994232N10144 1994 71 WP MM HARRY 1994-08-21 18:00:00 NR 13.3000 136.300 main 1170 1122 O_____________ jtwc_wp WP211994 13.3000 136.300 10 -1 11 291
1994232N10144 1994 71 WP MM HARRY 1994-08-21 21:00:00 NR 13.5073 135.757 main 1122 1065 P_____________ WP211994 13.5073 135.757 10 -1 11 291
1994232N10144 1994 71 WP MM HARRY 1994-08-22 00:00:00 NR 13.7000 135.200 main 1065 1002 O_____________ jtwc_wp WP211994 13.7000 135.200 10 -1 12 287
1994232N10144 1994 71 WP MM HARRY 1994-08-22 03:00:00 NR 13.8574 134.607 main 1004 942 P_____________ WP211994 13.8574 134.607 12 -1 12 284
1994232N10144 1994 71 WP MM HARRY 1994-08-22 06:00:00 NR 14.0000 134.000 main 942 881 O_____________ jtwc_wp WP211994 14.0000 134.000 15 -1 12 284
1994232N10144 1994 71 WP MM HARRY 1994-08-22 09:00:00 NR 14.1499 133.400 main 881 824 P_____________ WP211994 14.1499 133.400 15 -1 12 284
1994232N10144 1994 71 WP MM HARRY 1994-08-22 12:00:00 NR 14.3000 132.800 main 824 766 O_____________ jtwc_wp WP211994 14.3000 132.800 15 -1 12 284
1994232N10144 1994 71 WP MM HARRY 1994-08-22 15:00:00 NR 14.4498 132.200 main 766 712 P_____________ WP211994 14.4498 132.200 15 -1 12 284
1994232N10144 1994 71 WP MM HARRY 1994-08-22 18:00:00 NR 14.6000 131.600 main 712 657 O_____________ jtwc_wp WP211994 14.6000 131.600 15 -1 12 284
1994232N10144 1994 71 WP MM HARRY 1994-08-22 21:00:00 NR 14.7498 131.000 main 657 610 P_____________ WP211994 14.7498 131.000 15 -1 12 285
1994232N10144 1994 71 WP MM HARRY 1994-08-23 00:00:00 NR 14.9000 130.400 main 610 560 O_____________ jtwc_wp WP211994 14.9000 130.400 15 -1 12 284
1994232N10144 1994 71 WP MM HARRY 1994-08-23 03:00:00 NR 15.0423 129.800 main 560 522 P_____________ WP211994 15.0423 129.800 15 -1 12 285
1994232N10144 1994 71 WP MM HARRY 1994-08-23 06:00:00 NR 15.2000 129.200 main 522 482 O_____________ jtwc_wp WP211994 15.2000 129.200 15 -1 12 287
1994232N10144 1994 71 WP MM HARRY 1994-08-23 09:00:00 NR 15.3923 128.600 main 482 431 P_____________ WP211994 15.3923 128.600 15 -1 12 289
1994232N10144 1994 71 WP MM HARRY 1994-08-23 12:00:00 NR 15.6000 128.000 main 431 386 O_____________ jtwc_wp WP211994 15.6000 128.000 15 -1 12 289
1994232N10144 1994 71 WP MM HARRY 1994-08-23 15:00:00 NR 15.7998 127.400 main 386 348 P_____________ WP211994 15.7998 127.400 15 -1 12 289
1994232N10144 1994 71 WP MM HARRY 1994-08-23 18:00:00 NR 16.0000 126.800 main 348 319 O_____________ jtwc_wp WP211994 16.0000 126.800 15 -1 12 289
1994232N10144 1994 71 WP MM HARRY 1994-08-23 21:00:00 NR 16.1998 126.207 main 319 268 P_____________ WP211994 16.1998 126.207 17 -1 15 279
1994232N10144 1994 71 WP MM HARRY 1994-08-24 00:00:00 TS 16.2200 125.280 1006 tokyo main 268 223 OO____________ jtwc_wp WP211994 16.4000 125.600 20 -1 15.5000 124.000 2 1006 0 0 0 17 274
1994232N10144 1994 71 WP MM HARRY 1994-08-24 03:00:00 TS 16.3166 124.488 main 223 149 PP____________ WP211994 16.5999 124.957 20 -1 15.7500 123.550 2 1006 0 0 15 279
1994232N10144 1994 71 WP MM HARRY 1994-08-24 06:00:00 TS 16.4571 123.743 1006 tokyo main 135 62 OO____________ jtwc_wp WP211994 16.8000 124.300 20 -1 16.0000 123.000 2 1006 0 0 0 15 282
1994232N10144 1994 71 WP MM HARRY 1994-08-24 09:00:00 TS 16.6249 122.969 main 62 0 PP____________ WP211994 16.9998 123.650 20 -1 16.2501 122.287 2 1006 0 0 17 278
1994232N10144 1994 71 WP MM HARRY 1994-08-24 12:00:00 TS 16.7000 122.033 1006 tokyo main 0 0 OOO___________ jtwc_wp WP211994 17.2000 123.000 20 -1 16.5000 121.500 2 1006 0 0 0 15.5000 120.300 1 23 1004 16 275
1994232N10144 1994 71 WP MM HARRY 1994-08-24 15:00:00 TS 16.7550 121.287 main 0 0 PPP___________ WP211994 17.3999 122.342 20 -1 16.7876 120.713 2 1006 0 0 15.4000 120.323 1 23 1004 13 275
1994232N10144 1994 71 WP MM HARRY 1994-08-24 18:00:00 TS 16.8091 120.700 1006 tokyo main 0 0 OOO___________ jtwc_wp WP211994 17.6000 121.700 20 -1 17.0000 120.000 2 1006 0 0 0 15.5000 120.300 1 23 1004 10 279
1994232N10144 1994 71 WP MM HARRY 1994-08-24 21:00:00 TS 16.9156 120.247 main 24 24 PPP___________ WP211994 17.8072 121.092 22 -1 17.0146 119.454 2 1005 0 0 15.9250 120.195 1 23 1004 9 293
1994232N10144 1994 71 WP MM HARRY 1994-08-25 00:00:00 TS 17.1667 119.833 1004 tokyo main 63 63 OOO___________ jtwc_wp WP211994 18.0000 120.500 25 -1 17.0000 119.000 2 1004 0 0 0 16.5000 120.000 1 23 1004 10 303
1994232N10144 1994 71 WP MM HARRY 1994-08-25 03:00:00 TS 17.4382 119.396 main 98 96 PPP___________ WP211994 18.1573 119.900 27 -1 17.1199 118.535 2 1003 0 0 17.0374 119.753 1 26 1002 10 302
1994232N10144 1994 71 WP MM HARRY 1994-08-25 06:00:00 TS 17.6923 118.946 1002 tokyo main 148 148 OOOO__________ jtwc_wp WP211994 18.3000 119.300 30 -1 17.3000 118.100 2 1002 0 0 0 17.5000 119.400 1 29 1000 17.6000 119.100 TD 25 1002 10 297
1994232N10144 1994 71 WP MM HARRY 1994-08-25 09:00:00 TS 17.8917 118.462 main 193 193 PPPP__________ WP211994 18.4499 118.692 30 -1 17.4850 117.677 2 1001 0 0 17.8099 118.952 1 33 1000 17.7528 118.588 TD 27 1001 10 292
1994232N10144 1994 71 WP MM HARRY 1994-08-25 12:00:00 TS 18.0600 117.967 1000 tokyo main 249 249 OOOO__________ jtwc_wp WP211994 18.6000 118.100 30 -1 17.7000 117.300 2 1000 0 0 0 18.0000 118.400 2 38 1000 17.9000 118.100 TD 30 1000 10 289
1994232N10144 1994 71 WP MM HARRY 1994-08-25 15:00:00 TS 18.2143 117.484 main 303 303 PPPP__________ WP211994 18.7573 117.535 32 -1 17.9423 116.992 2 1000 0 0 18.1151 117.757 2 38 997 18.0423 117.650 TD 32 999 10 289
1994232N10144 1994 71 WP MM HARRY 1994-08-25 18:00:00 TS 18.3750 117.000 1000 tokyo main 360 360 OOOO__________ jtwc_wp WP211994 18.9000 117.000 35 0 18.2000 116.700 2 1000 0 0 0 18.2000 117.100 2 38 995 18.2000 117.200 TS 35 998 10 290
1994232N10144 1994 71 WP MM HARRY 1994-08-25 21:00:00 TS 18.5423 116.525 main 414 414 PPPP__________ WP211994 18.9998 116.492 35 0 18.4649 116.372 2 999 0 0 18.3198 116.527 2 38 992 18.3849 116.707 TS 35 998 10 291
1994232N10144 1994 71 WP MM HARRY 1994-08-26 00:00:00 TS 18.7250 116.050 35 998 tokyo main 442 403 OOOO__________ jtwc_wp WP211994 19.1000 116.000 35 0 18.7000 116.000 3 35 998 0 9 100 100 0 18.5000 116.000 2 38 990 18.6000 116.200 TS 35 998 10 293
1994232N10144 1994 71 WP MM HARRY 1994-08-26 03:00:00 TS 18.9280 115.566 main 403 367 PPPP__________ WP211994 19.2349 115.500 37 0 18.8574 115.572 3 35 998 0 9 100 100 18.7848 115.493 2 43 990 18.8349 115.700 TS 37 996 10 295
1994232N10144 1994 71 WP MM HARRY 1994-08-26 06:00:00 TS 19.1500 115.075 35 998 tokyo main 356 325 OOOO__________ jtwc_wp WP211994 19.4000 115.000 40 0 19.0000 115.100 3 35 998 0 9 100 100 0 19.1000 115.000 3 48 990 19.1000 115.200 TS 40 994 11 297
1994232N10144 1994 71 WP MM HARRY 1994-08-26 09:00:00 TS 19.3968 114.571 main 325 281 PPPP__________ WP211994 19.6074 114.493 42 0 19.2000 114.600 3 35 997 0 9 125 125 19.3650 114.485 3 48 990 19.4148 114.708 TS 40 994 11 297
1994232N10144 1994 71 WP MM HARRY 1994-08-26 12:00:00 TS 19.6250 114.075 35 996 tokyo main 281 242 OOOO__________ jtwc_wp WP211994 19.8000 114.000 45 0 19.4000 114.100 3 35 996 0 9 150 150 0 19.6000 114.000 3 48 990 19.7000 114.200 TS 40 994 10 294
1994232N10144 1994 71 WP MM HARRY 1994-08-26 15:00:00 TS 19.7955 113.607 main 242 221 PPPP__________ WP211994 19.9148 113.542 47 0 19.5573 113.642 3 35 996 0 9 150 150 19.8297 113.600 3 48 987 19.8800 113.642 TS 42 992 9 289
1994232N10144 1994 71 WP MM HARRY 1994-08-26 18:00:00 TS 19.9250 113.150 35 996 tokyo main 221 183 OOOO__________ jtwc_wp WP211994 20.0000 113.100 50 0 19.7000 113.200 3 35 996 0 9 150 150 0 20.0000 113.200 3 48 985 20.0000 113.100 TS 45 990 9 285
1994232N10144 1994 71 WP MM HARRY 1994-08-26 21:00:00 TS 20.0343 112.676 main 183 137 PPPP__________ WP211994 20.1074 112.643 52 0 19.8574 112.743 3 37 995 0 9 175 150 20.0576 112.692 3 48 985 20.1148 112.627 TS 45 990 9 283
1994232N10144 1994 71 WP MM HARRY 1994-08-27 00:00:00 TS 20.1250 112.225 40 994 tokyo main 137 99 OOOO__________ jtwc_wp WP211994 20.2000 112.200 55 0 20.0000 112.300 3 40 994 0 2 200 150 0 20.1000 112.200 3 48 985 20.2000 112.200 TS 45 990 8 283
1994232N10144 1994 71 WP MM HARRY 1994-08-27 03:00:00 TS 20.2236 111.826 main 99 76 PPPP__________ WP211994 20.2574 111.792 57 0 20.1149 111.892 3 42 993 0 2 200 150 20.2572 111.835 3 48 985 20.2649 111.785 TS 47 987 7 284
1994232N10144 1994 71 WP MM HARRY 1994-08-27 06:00:00 TS 20.3000 111.450 45 992 tokyo main 76 45 OOOO__________ jtwc_wp WP211994 20.3000 111.400 60 0 20.2000 111.500 3 45 992 0 2 200 150 0 20.4000 111.500 3 48 985 20.3000 111.400 STS 50 985 7 279
1994232N10144 1994 71 WP MM HARRY 1994-08-27 09:00:00 TS 20.3362 111.055 main 45 22 PPPP__________ WP211994 20.3500 110.992 60 0 20.2650 111.085 3 45 991 0 2 190 140 20.4225 111.100 3 53 982 20.3074 111.042 STS 50 985 7 274
1994232N10144 1994 71 WP MM HARRY 1994-08-27 12:00:00 TS 20.3500 110.675 45 990 tokyo main 23 0 OOOO__________ jtwc_wp WP211994 20.4000 110.600 60 0 20.3000 110.700 3 45 990 0 2 180 130 0 20.4000 110.700 3 58 980 20.3000 110.700 STS 50 985 7 272
1994232N10144 1994 71 WP MM HARRY 1994-08-27 15:00:00 TS 20.3624 110.328 main 0 0 PPPP__________ WP211994 20.4499 110.242 57 0 20.2998 110.392 3 45 990 0 2 180 130 20.3999 110.335 3 58 980 20.3000 110.343 STS 50 985 6 272
1994232N10144 1994 71 WP MM HARRY 1994-08-27 18:00:00 TS 20.3750 110.000 45 990 tokyo main 0 0 OOOO__________ jtwc_wp WP211994 20.5000 109.900 55 0 20.3000 110.100 3 45 990 0 2 180 130 0 20.4000 110.000 3 58 980 20.3000 110.000 STS 50 985 6 272
1994232N10144 1994 71 WP MM HARRY 1994-08-27 21:00:00 TS 20.3849 109.681 main 15 15 PPPP__________ WP211994 20.5499 109.550 55 0 20.3274 109.765 3 45 990 0 2 165 125 20.3848 109.707 3 58 980 20.2774 109.700 STS 47 986 6 275
1994232N10144 1994 71 WP MM HARRY 1994-08-28 00:00:00 TS 20.4250 109.350 45 990 tokyo main 43 43 OOOO__________ jtwc_wp WP211994 20.6000 109.200 55 0 20.4000 109.400 3 45 990 0 2 150 120 0 20.4000 109.400 3 58 980 20.3000 109.400 TS 45 988 7 282
1994232N10144 1994 71 WP MM HARRY 1994-08-28 03:00:00 TS 20.5168 108.990 main 80 80 PPPP__________ WP211994 20.6424 108.857 55 0 20.5349 109.015 3 45 990 0 2 135 120 20.4700 109.015 3 63 977 20.4199 109.072 TS 45 988 7 288
1994232N10144 1994 71 WP MM HARRY 1994-08-28 06:00:00 TS 20.6500 108.600 45 990 tokyo main 98 73 OOOO__________ jtwc_wp WP211994 20.7000 108.500 55 0 20.7000 108.600 3 45 990 0 9 120 120 0 20.6000 108.600 4 68 975 20.6000 108.700 TS 45 988 8 293
1994232N10144 1994 71 WP MM HARRY 1994-08-28 09:00:00 TS 20.8216 108.207 main 73 39 PPPP__________ WP211994 20.7998 108.123 52 0 20.8647 108.180 3 45 990 0 9 120 120 20.8070 108.245 4 63 980 20.8149 108.280 TS 45 988 9 292
1994232N10144 1994 71 WP MM HARRY 1994-08-28 12:00:00 TS 20.9750 107.750 45 990 tokyo main 39 0 OOOO__________ jtwc_wp WP211994 20.9000 107.700 50 0 21.0000 107.700 3 45 990 0 9 120 120 0 21.0000 107.800 3 58 985 21.0000 107.800 TS 45 988 10 283
1994232N10144 1994 71 WP MM HARRY 1994-08-28 15:00:00 TS 21.0456 107.189 main 0 0 PPPP__________ WP211994 20.9650 107.215 45 0 21.0651 107.115 3 42 991 0 9 105 105 21.0725 107.160 3 53 985 21.0800 107.265 TS 45 988 11 275
1994232N10144 1994 71 WP MM HARRY 1994-08-28 18:00:00 TS 21.0733 106.567 40 992 tokyo main 0 0 OOOO__________ jtwc_wp WP211994 21.0000 106.700 40 0 21.1000 106.500 3 40 992 0 9 90 90 0 21.1000 106.400 3 48 985 21.1000 106.700 TS 45 988 11 273
1994232N10144 1994 71 WP MM HARRY 1994-08-28 21:00:00 TS 21.0956 105.975 main 0 0 PPPP__________ WP211994 21.0073 106.207 32 -1 21.1420 105.965 3 37 994 0 9 75 75 21.1340 105.667 3 43 990 21.1028 106.145 TS 37 992 11 273
1994232N10144 1994 71 WP MM HARRY 1994-08-29 00:00:00 TS 21.1250 105.367 35 996 tokyo main 0 0 OOOO__________ jtwc_wp WP211994 21.0000 105.700 25 -1 21.2000 105.400 3 35 996 0 9 60 60 0 21.2000 104.800 2 38 995 21.1000 105.600 TD 30 996 12 274
1994232N10144 1994 71 WP MM HARRY 1994-08-29 03:00:00 TS 21.1863 104.701 main 0 0 PPP___________ WP211994 20.9998 105.165 20 -1 21.2999 104.730 3 998 0 9 21.3323 103.716 2 33 997 TD 12 275
1994232N10144 1994 71 WP MM HARRY 1994-08-29 06:00:00 TS 21.2429 104.043 1000 tokyo main 0 0 OOO___________ jtwc_wp WP211994 21.0000 104.600 15 -1 21.4000 104.000 2 1000 0 0 0 21.5000 102.500 1 29 1000 10 273
1994232N10144 1994 71 WP MM HARRY 1994-08-29 09:00:00 TS 21.2318 103.630 main 0 0 PP____________ WP211994 21.0005 104.008 12 -1 21.4631 103.252 2 1001 0 0 1 10 270
1994232N10144 1994 71 WP MM HARRY 1994-08-29 12:00:00 TS 21.2500 102.950 1002 tokyo main 0 OO____________ jtwc_wp WP211994 21.0000 103.400 10 -1 21.5000 102.500 2 1002 0 0 0 13 272

Digital Typhoon Data and Search

About IBTrACS Database

This database is a web-friendly format of International Best Track Archive for Climate Stewardship (IBTrACS), a global best track data archive curated by NOAA dating back to 1842.

Updated: 2021-12-03